Time;durP1;ratioP1;P1;durP2;ratioP2;P2;SDS_P1;SDS_P2;PMS_P1;PMS_P2;Temp;Humidity;BMP_temperature;BMP_pressure;BME280_temperature;BME280_humidity;BME280_pressure;Samples;Min_cycle;Max_cycle;Signal;HPM_P1;HPM_P2
2023/03/03 00:01:19;;;;;;;42.63;28.17;;;;;;;6.68;100.00;100569.53;5052342;28;20111;-73
2023/03/03 00:03:45;;;;;;;38.58;27.35;;;;;;;6.46;100.00;100509.81;5051229;28;20033;-73
2023/03/03 00:06:12;;;;;;;39.00;27.65;;;;;;;6.54;100.00;100571.25;5052207;28;20029;-73
2023/03/03 00:08:38;;;;;;;37.92;25.65;;;;;;;6.68;100.00;100556.06;5051010;28;20036;-74
2023/03/03 00:11:05;;;;;;;37.72;25.92;;;;;;;6.85;100.00;100559.38;5050837;28;20422;-74
2023/03/03 00:13:32;;;;;;;38.95;27.33;;;;;;;6.75;100.00;100547.63;5050798;28;20037;-74
2023/03/03 00:16:25;;;;;;;36.88;26.17;;;;;;;6.84;100.00;100558.53;5050910;28;20404;-74
2023/03/03 00:18:52;;;;;;;34.60;26.02;;;;;;;6.32;100.00;100482.94;5052068;28;20032;-75
2023/03/03 00:21:17;;;;;;;37.75;25.95;;;;;;;6.76;100.00;100547.63;5052031;28;20067;-74
2023/03/03 00:23:42;;;;;;;36.50;26.48;;;;;;;6.67;100.00;100539.22;5052357;28;20029;-74
2023/03/03 00:26:20;;;;;;;34.28;25.15;;;;;;;6.48;100.00;100530.00;5052191;28;20487;-75
2023/03/03 00:28:53;;;;;;;35.03;25.45;;;;;;;6.66;100.00;100525.75;5050618;28;20029;-74
2023/03/03 00:31:24;;;;;;;36.28;25.98;;;;;;;6.31;100.00;100479.56;5050484;28;20021;-75
2023/03/03 00:33:54;;;;;;;36.28;26.67;;;;;;;6.58;100.00;100524.09;5051087;28;20396;-74
2023/03/03 00:36:36;;;;;;;39.33;27.60;;;;;;;6.10;100.00;100460.28;5050628;28;20049;-74
2023/03/03 00:39:26;;;;;;;38.78;26.23;;;;;;;6.31;100.00;100519.13;5051682;28;20503;-74
2023/03/03 00:41:51;;;;;;;36.60;25.25;;;;;;;6.05;100.00;100456.06;5051554;28;20037;-74
2023/03/03 00:44:24;;;;;;;35.00;25.40;;;;;;;6.41;100.00;100511.53;5050255;28;20090;-74
2023/03/03 00:46:52;;;;;;;36.75;25.85;;;;;;;6.11;100.00;100463.63;5051704;28;20051;-74
2023/03/03 00:49:25;;;;;;;42.50;27.27;;;;;;;6.41;100.00;100505.63;5050493;28;20025;-73
2023/03/03 00:51:51;;;;;;;35.58;26.05;;;;;;;6.12;100.00;100440.91;5051742;28;20041;-73
2023/03/03 00:54:16;;;;;;;37.65;27.65;;;;;;;5.97;100.00;100427.50;5050906;28;20041;-73
2023/03/03 00:56:42;;;;;;;41.60;27.85;;;;;;;6.15;100.00;100445.13;5051137;28;20059;-73
2023/03/03 00:59:07;;;;;;;38.42;27.20;;;;;;;6.12;100.00;100430.81;5051176;28;20032;-73
2023/03/03 01:01:32;;;;;;;39.53;27.63;;;;;;;6.27;100.00;100447.63;5051080;28;20033;-73
2023/03/03 01:03:58;;;;;;;39.17;27.27;;;;;;;6.32;100.00;100425.69;5050125;28;20040;-73
2023/03/03 01:06:23;;;;;;;41.75;26.60;;;;;;;6.02;100.00;100414.03;5051350;28;20017;-73
2023/03/03 01:08:49;;;;;;;39.17;27.15;;;;;;;6.12;100.00;100413.16;5050134;28;20035;-73
2023/03/03 01:11:18;;;;;;;38.42;26.05;;;;;;;6.26;100.00;100430.78;5050140;28;20029;-73
2023/03/03 01:13:46;;;;;;;36.30;25.45;;;;;;;6.21;100.00;100422.38;5051210;28;20041;-73
2023/03/03 01:16:12;;;;;;;38.38;24.70;;;;;;;6.14;100.00;100425.75;5050090;28;20025;-74
2023/03/03 01:18:40;;;;;;;37.20;25.90;;;;;;;6.52;100.00;100458.44;5051177;28;20501;-73
2023/03/03 01:21:06;;;;;;;35.53;24.35;;;;;;;6.66;100.00;100462.59;5051305;28;20027;-73
2023/03/03 01:23:32;;;;;;;31.20;22.67;;;;;;;6.47;100.00;100475.31;5051170;28;20037;-73
2023/03/03 01:25:58;;;;;;;34.22;23.13;;;;;;;6.32;100.00;100457.72;5050472;28;20153;-74
2023/03/03 01:28:23;;;;;;;31.60;22.48;;;;;;;6.37;100.00;100450.94;5050944;28;20048;-73
2023/03/03 01:30:49;;;;;;;32.42;22.63;;;;;;;6.39;100.00;100450.09;5049883;28;20054;-74
2023/03/03 01:33:15;;;;;;;34.72;23.27;;;;;;;6.10;100.00;100373.66;5051227;28;20025;-74
2023/03/03 01:35:47;;;;;;;31.38;22.27;;;;;;;6.49;100.00;100454.28;5051640;28;20101;-73
2023/03/03 01:38:14;;;;;;;33.72;21.73;;;;;;;6.21;100.00;100414.81;5051011;28;20040;-74
2023/03/03 01:40:39;;;;;;;29.35;21.58;;;;;;;6.62;100.00;100471.03;5051064;28;20033;-74
2023/03/03 01:43:05;;;;;;;31.15;21.45;;;;;;;6.53;100.00;100461.00;5050804;28;20094;-74
2023/03/03 01:46:04;;;;;;;32.00;21.60;;;;;;;6.54;100.00;100466.84;5054901;28;20483;-74
2023/03/03 01:48:44;;;;;;;30.88;21.33;;;;;;;6.29;100.00;100418.16;5054707;28;20067;-73
2023/03/03 01:51:21;;;;;;;29.05;21.00;;;;;;;6.42;100.00;100457.66;5053029;28;20120;-73
2023/03/03 01:53:51;;;;;;;31.88;21.58;;;;;;;6.25;100.00;100445.94;5055002;28;20112;-74
2023/03/03 01:56:17;;;;;;;32.15;21.05;;;;;;;5.93;100.00;100400.59;5054705;28;20036;-74
2023/03/03 01:58:52;;;;;;;34.08;20.92;;;;;;;6.20;100.00;100450.16;5053557;28;20033;-73
2023/03/03 02:01:26;;;;;;;28.70;20.15;;;;;;;6.41;100.00;100443.34;5053127;28;20033;-73
2023/03/03 02:03:52;;;;;;;32.30;21.73;;;;;;;6.41;100.00;100466.09;5054374;28;20033;-73
2023/03/03 02:06:21;;;;;;;31.30;20.42;;;;;;;6.24;100.00;100456.88;5055070;28;20468;-74
2023/03/03 02:08:57;;;;;;;28.20;20.17;;;;;;;6.33;100.00;100469.47;5054657;28;20565;-74
2023/03/03 02:11:23;;;;;;;28.90;20.63;;;;;;;5.84;100.00;100408.19;5053670;28;20070;-73
2023/03/03 02:13:48;;;;;;;30.60;20.83;;;;;;;6.24;100.00;100419.03;5053491;28;20029;-73
2023/03/03 02:16:14;;;;;;;29.55;20.30;;;;;;;6.10;100.00;100424.13;5052261;28;20459;-73
2023/03/03 02:18:39;;;;;;;26.58;20.25;;;;;;;6.16;100.00;100423.25;5054092;28;20033;-73
2023/03/03 02:21:14;;;;;;;30.75;20.75;;;;;;;6.10;100.00;100424.13;5054402;28;20537;-72
2023/03/03 02:23:52;;;;;;;30.30;20.13;;;;;;;6.43;100.00;100471.97;5054089;28;20029;-73
2023/03/03 02:26:22;;;;;;;28.08;20.08;;;;;;;6.34;100.00;100473.69;5054132;28;20040;-73
2023/03/03 02:28:48;;;;;;;29.65;20.48;;;;;;;6.18;100.00;100426.63;5053642;28;20958;-72
2023/03/03 02:31:18;;;;;;;31.67;20.00;;;;;;;6.40;100.00;100481.25;5054003;28;20120;-73
2023/03/03 02:33:46;;;;;;;30.58;19.73;;;;;;;5.83;100.00;100378.72;5054359;28;20029;-73
2023/03/03 02:36:35;;;;;;;27.92;19.23;;;;;;;6.14;100.00;100454.38;5053853;28;20483;-73
2023/03/03 02:39:13;;;;;;;26.55;19.60;;;;;;;6.24;100.00;100466.97;5050029;28;20533;-73
2023/03/03 02:42:01;;;;;;;28.58;19.48;;;;;;;6.04;100.00;100462.81;5052179;28;20037;-73
2023/03/03 02:44:29;;;;;;;26.45;19.17;;;;;;;6.20;100.00;100463.59;5052689;28;20096;-73
2023/03/03 02:46:55;;;;;;;27.58;19.17;;;;;;;6.25;100.00;100436.69;5052501;28;20071;-73
2023/03/03 02:49:25;;;;;;;28.67;19.52;;;;;;;6.19;100.00;100408.09;5053484;28;20492;-73
2023/03/03 02:51:51;;;;;;;26.63;19.25;;;;;;;6.32;100.00;100448.41;5053200;28;20048;-73
2023/03/03 02:54:19;;;;;;;26.67;19.10;;;;;;;6.54;100.00;100467.72;5053611;28;20029;-73
2023/03/03 02:56:44;;;;;;;28.58;19.45;;;;;;;6.16;100.00;100405.59;5051380;28;20480;-73
2023/03/03 02:59:11;;;;;;;26.10;18.77;;;;;;;6.58;100.00;100459.28;5052489;28;20064;-73
2023/03/03 03:01:36;;;;;;;28.20;18.73;;;;;;;6.59;100.00;100481.19;5052195;28;20051;-73
2023/03/03 03:04:11;;;;;;;26.98;17.92;;;;;;;6.60;100.00;100467.69;5053563;28;20457;-74
2023/03/03 03:06:36;;;;;;;27.15;18.55;;;;;;;6.26;100.00;100425.72;5053587;28;20029;-73
2023/03/03 03:09:04;;;;;;;24.23;18.23;;;;;;;6.35;100.00;100455.16;5053478;28;20047;-73
2023/03/03 03:11:29;;;;;;;25.92;18.95;;;;;;;6.52;100.00;100458.44;5053518;28;20120;-73
2023/03/03 03:13:54;;;;;;;25.85;17.77;;;;;;;6.12;100.00;100423.25;5053083;28;20056;-73
2023/03/03 03:16:20;;;;;;;25.13;18.67;;;;;;;6.35;100.00;100420.66;5052515;28;20169;-72
2023/03/03 03:18:45;;;;;;;28.85;18.23;;;;;;;6.21;100.00;100417.34;5052108;28;20059;-72
2023/03/03 03:21:12;;;;;;;27.40;18.52;;;;;;;6.19;100.00;100424.06;5053142;28;20029;-72
2023/03/03 03:23:39;;;;;;;26.67;19.02;;;;;;;6.52;100.00;100468.53;5052617;28;20031;-73
2023/03/03 03:26:05;;;;;;;25.33;18.15;;;;;;;6.38;100.00;100447.59;5052821;28;20060;-73
2023/03/03 03:28:31;;;;;;;27.10;17.42;;;;;;;6.38;100.00;100442.53;5052855;28;20021;-73
2023/03/03 03:30:57;;;;;;;27.27;18.83;;;;;;;6.33;100.00;100418.97;5051453;28;20120;-73
2023/03/03 03:33:23;;;;;;;27.85;17.67;;;;;;;6.54;100.00;100462.66;5051238;28;20158;-73
2023/03/03 03:35:49;;;;;;;26.23;18.92;;;;;;;6.67;100.00;100473.56;5040854;28;20056;-74
2023/03/03 03:38:15;;;;;;;27.70;17.95;;;;;;;6.45;100.00;100464.38;5032041;28;20045;-73
2023/03/03 03:40:41;;;;;;;25.27;17.73;;;;;;;6.42;100.00;100470.28;5032962;28;20207;-73
2023/03/03 03:43:06;;;;;;;27.13;18.23;;;;;;;6.28;100.00;100421.50;5032758;28;20053;-72
2023/03/03 03:45:32;;;;;;;24.65;18.30;;;;;;;6.22;100.00;100419.00;5031029;28;20067;-73
2023/03/03 03:47:58;;;;;;;24.55;17.60;;;;;;;6.26;100.00;100435.81;5032663;28;20038;-73
2023/03/03 03:50:23;;;;;;;27.08;18.95;;;;;;;6.17;100.00;100423.25;5031189;28;20036;-74
2023/03/03 03:52:49;;;;;;;26.95;17.98;;;;;;;6.71;100.00;100481.13;5031277;28;20022;-73
2023/03/03 03:55:14;;;;;;;27.17;17.92;;;;;;;5.95;100.00;100384.63;5031291;28;20072;-73
2023/03/03 03:57:41;;;;;;;25.50;17.40;;;;;;;6.38;100.00;100471.13;5031931;28;20065;-73
2023/03/03 04:00:07;;;;;;;26.20;17.77;;;;;;;6.35;100.00;100422.34;5030973;28;20065;-73
2023/03/03 04:02:33;;;;;;;27.77;18.17;;;;;;;6.49;100.00;100473.63;5032031;28;20037;-73
2023/03/03 04:04:59;;;;;;;29.00;17.90;;;;;;;6.46;100.00;100446.69;5032531;28;20033;-73
2023/03/03 04:07:25;;;;;;;23.73;17.38;;;;;;;6.72;100.00;100469.31;5030877;28;20056;-74
2023/03/03 04:09:50;;;;;;;23.77;17.75;;;;;;;6.31;100.00;100415.63;5031373;28;20183;-73
2023/03/03 04:12:16;;;;;;;27.20;17.98;;;;;;;6.58;100.00;100482.00;5031843;28;20090;-73
2023/03/03 04:14:41;;;;;;;26.05;18.23;;;;;;;6.49;100.00;100438.28;5032663;28;20037;-73
2023/03/03 04:17:07;;;;;;;25.20;18.50;;;;;;;6.40;100.00;100425.69;5031358;28;20037;-73
2023/03/03 04:19:32;;;;;;;26.42;17.80;;;;;;;6.61;100.00;100456.75;5030698;28;20138;-73
2023/03/03 04:21:58;;;;;;;28.25;18.08;;;;;;;6.13;100.00;100421.56;5031644;28;20063;-73
2023/03/03 04:24:23;;;;;;;27.45;19.08;;;;;;;5.81;100.00;100405.63;5032302;28;20083;-73
2023/03/03 04:26:48;;;;;;;23.88;18.73;;;;;;;6.18;100.00;100435.00;5029899;28;20029;-73
2023/03/03 04:29:14;;;;;;;29.00;19.42;;;;;;;6.31;100.00;100464.44;5032221;28;20120;-73
2023/03/03 04:31:39;;;;;;;26.83;18.80;;;;;;;5.97;100.00;100430.03;5031871;28;20041;-73
2023/03/03 04:34:05;;;;;;;27.77;18.00;;;;;;;6.28;100.00;100463.59;5032034;28;20619;-72
2023/03/03 04:36:30;;;;;;;25.02;17.02;;;;;;;5.86;100.00;100416.59;5031184;28;20033;-73
2023/03/03 04:38:55;;;;;;;25.85;17.35;;;;;;;6.19;100.00;100439.22;5022001;28;20115;-73
2023/03/03 04:41:21;;;;;;;25.08;17.52;;;;;;;5.83;100.00;100411.50;5026100;28;20029;-73
2023/03/03 04:43:47;;;;;;;26.02;17.48;;;;;;;6.06;100.00;100457.78;5030953;28;20044;-73
2023/03/03 04:46:13;;;;;;;28.45;18.33;;;;;;;6.11;100.00;100440.94;5012252;28;20435;-73
2023/03/03 04:48:38;;;;;;;23.20;18.00;;;;;;;6.19;100.00;100464.47;5011524;28;20022;-72
2023/03/03 04:51:04;;;;;;;26.10;18.10;;;;;;;6.05;100.00;100423.28;5012317;28;20029;-73
2023/03/03 04:53:29;;;;;;;25.92;18.40;;;;;;;5.91;100.00;100412.38;5010721;28;20388;-74
2023/03/03 04:55:55;;;;;;;24.85;18.10;;;;;;;6.12;100.00;100458.56;5010219;28;20040;-73
2023/03/03 04:58:21;;;;;;;27.90;18.77;;;;;;;5.94;100.00;100457.78;5010817;28;20163;-73
2023/03/03 05:00:52;;;;;;;28.65;19.88;;;;;;;5.90;100.00;100409.00;5011284;28;20033;-73
2023/03/03 05:03:18;;;;;;;28.30;18.98;;;;;;;5.81;100.00;100405.63;5010083;28;20040;-72
2023/03/03 05:05:45;;;;;;;26.33;18.73;;;;;;;5.97;100.00;100399.75;5010278;28;20100;-72
2023/03/03 05:08:10;;;;;;;26.80;19.10;;;;;;;6.15;100.00;100450.16;5010068;28;20060;-71
2023/03/03 05:10:36;;;;;;;26.70;18.30;;;;;;;5.84;100.00;100403.97;5011261;28;20527;-72
2023/03/03 05:13:01;;;;;;;27.88;19.05;;;;;;;6.11;100.00;100456.91;5011340;28;20034;-72
2023/03/03 05:15:26;;;;;;;31.30;18.75;;;;;;;6.25;100.00;100458.56;5018541;28;20041;-72
2023/03/03 05:17:52;;;;;;;26.23;19.92;;;;;;;6.36;100.00;100472.81;5011242;28;20045;-73
2023/03/03 05:20:18;;;;;;;31.42;21.17;;;;;;;6.14;100.00;100456.91;5015005;28;20076;-72
2023/03/03 05:22:44;;;;;;;29.50;21.13;;;;;;;6.05;100.00;100441.78;5031108;28;20411;-72
2023/03/03 05:25:11;;;;;;;26.88;19.17;;;;;;;6.04;100.00;100455.22;5035420;28;20029;-73
2023/03/03 05:27:36;;;;;;;25.67;18.77;;;;;;;6.35;100.00;100470.31;5034226;28;20037;-74
2023/03/03 05:30:04;;;;;;;25.90;18.40;;;;;;;5.93;100.00;100370.31;5035187;28;20120;-74
2023/03/03 05:32:29;;;;;;;27.85;19.25;;;;;;;6.38;100.00;100455.97;5035215;28;20492;-74
2023/03/03 05:34:54;;;;;;;29.15;19.35;;;;;;;6.31;100.00;100444.22;5033611;28;20037;-74
2023/03/03 05:37:20;;;;;;;26.17;18.88;;;;;;;5.99;100.00;100408.16;5035144;28;20037;-73
2023/03/03 05:39:47;;;;;;;34.88;20.67;;;;;;;6.39;100.00;100457.69;5035569;28;20063;-74
2023/03/03 05:42:13;;;;;;;27.48;19.25;;;;;;;5.87;100.00;100398.09;5035134;28;20476;-74
2023/03/03 05:44:38;;;;;;;29.33;19.27;;;;;;;6.35;100.00;100448.44;5035096;28;20022;-72
2023/03/03 05:47:04;;;;;;;27.73;19.27;;;;;;;6.27;100.00;100457.72;5034114;28;20091;-74
2023/03/03 05:49:40;;;;;;;25.77;18.70;;;;;;;6.02;100.00;100401.41;5035277;28;20063;-74
2023/03/03 05:52:07;;;;;;;25.23;19.02;;;;;;;5.91;100.00;100364.44;5034735;28;20040;-75
2023/03/03 05:54:33;;;;;;;26.60;19.02;;;;;;;6.41;100.00;100448.41;5035363;28;20122;-74
2023/03/03 05:56:59;;;;;;;25.25;19.13;;;;;;;6.17;100.00;100392.09;5035134;28;20176;-75
2023/03/03 05:59:24;;;;;;;25.50;18.05;;;;;;;6.06;100.00;100404.78;5033237;28;20037;-74
2023/03/03 06:01:50;;;;;;;24.83;17.83;;;;;;;6.15;100.00;100399.69;5033541;28;20029;-74
2023/03/03 06:04:15;;;;;;;26.85;18.25;;;;;;;6.29;100.00;100414.78;5034227;28;20035;-74
2023/03/03 06:06:44;;;;;;;24.45;17.67;;;;;;;6.65;100.00;100462.63;5034760;28;20030;-74
2023/03/03 06:09:09;;;;;;;22.40;17.48;;;;;;;6.13;100.00;100406.44;5033217;28;20411;-74
2023/03/03 06:11:36;;;;;;;23.08;16.65;;;;;;;6.59;100.00;100455.91;5033417;28;20031;-74
2023/03/03 06:14:01;;;;;;;21.25;16.45;;;;;;;6.42;100.00;100424.00;5034867;28;20035;-75
2023/03/03 06:16:27;;;;;;;21.70;16.88;;;;;;;6.26;100.00;100403.00;5033904;28;20034;-74
2023/03/03 06:18:52;;;;;;;25.05;15.93;;;;;;;6.47;100.00;100397.03;5034343;28;20025;-74
2023/03/03 06:21:17;;;;;;;21.10;15.43;;;;;;;6.57;100.00;100452.56;5033400;28;20488;-73
2023/03/03 06:23:43;;;;;;;21.58;15.65;;;;;;;6.81;100.00;100462.53;5034069;28;20041;-74
2023/03/03 06:26:08;;;;;;;21.75;14.80;;;;;;;6.54;100.00;100465.19;5033968;28;20076;-74
2023/03/03 06:28:34;;;;;;;23.13;14.27;;;;;;;6.59;100.00;100462.66;5034293;28;20033;-74
2023/03/03 06:30:59;;;;;;;21.98;15.68;;;;;;;6.75;100.00;100469.31;5032049;28;20026;-74
2023/03/03 06:33:25;;;;;;;22.70;14.93;;;;;;;6.54;100.00;100464.34;5034552;28;20116;-73
2023/03/03 06:35:51;;;;;;;20.73;15.30;;;;;;;6.98;100.00;100470.88;5032772;28;20496;-73
2023/03/03 06:38:17;;;;;;;19.65;14.10;;;;;;;6.84;100.00;100475.16;5034046;28;20041;-74
2023/03/03 06:40:43;;;;;;;17.70;13.82;;;;;;;7.06;100.00;100473.34;5032801;28;20030;-73
2023/03/03 06:43:08;;;;;;;27.38;15.80;;;;;;;6.92;100.00;100481.00;5031905;28;20029;-73
2023/03/03 06:45:34;;;;;;;21.45;14.52;;;;;;;6.71;100.00;100447.44;5033602;28;20044;-73
2023/03/03 06:48:00;;;;;;;20.40;14.70;;;;;;;6.57;100.00;100419.72;5032699;28;20037;-74
2023/03/03 06:50:26;;;;;;;18.33;13.52;;;;;;;6.62;100.00;100420.53;5032826;28;20033;-73
2023/03/03 06:53:01;;;;;;;20.05;13.55;;;;;;;6.75;100.00;100437.31;5032336;28;20021;-74
2023/03/03 06:55:27;;;;;;;19.08;12.77;;;;;;;6.59;100.00;100428.13;5032508;28;20034;-74
2023/03/03 06:57:54;;;;;;;18.27;12.80;;;;;;;7.24;100.00;100470.72;5032435;28;20048;-74
2023/03/03 07:00:24;;;;;;;21.80;16.90;;;;;;;7.24;100.00;100487.56;5032540;28;20032;-73
2023/03/03 07:03:01;;;;;;;39.00;27.10;;;;;;;6.79;100.00;100431.38;5033571;28;20033;-74
2023/03/03 07:05:28;;;;;;;21.55;18.08;;;;;;;7.18;100.00;100485.06;5033727;28;20132;-75
2023/03/03 07:07:56;;;;;;;17.17;12.73;;;;;;;6.95;100.00;100449.84;5031893;28;20033;-74
2023/03/03 07:10:23;;;;;;;17.38;12.60;;;;;;;7.05;100.00;100488.53;5032619;28;20155;-73
2023/03/03 07:12:49;;;;;;;21.35;13.60;;;;;;;6.57;100.00;100427.31;5033696;28;20029;-73
2023/03/03 07:15:29;;;;;;;22.95;16.42;;;;;;;6.82;100.00;100483.59;5032595;28;20488;-73
2023/03/03 07:17:58;;;;;;;23.55;15.60;;;;;;;7.01;100.00;100485.19;5032113;28;20033;-73
2023/03/03 07:20:31;;;;;;;23.48;14.35;;;;;;;6.97;100.00;100464.13;5031481;28;20029;-73
2023/03/03 07:22:57;;;;;;;21.58;14.85;;;;;;;7.20;100.00;100478.31;5033028;28;20037;-74
2023/03/03 07:25:25;;;;;;;16.27;11.32;;;;;;;7.85;100.00;100483.72;5015933;28;20423;-71
2023/03/03 07:27:55;;;;;;;18.98;14.00;;;;;;;7.07;100.00;100471.66;5013632;28;20137;-73
2023/03/03 07:30:28;;;;;;;18.73;13.65;;;;;;;7.09;100.00;100406.78;5030583;28;20029;-76
2023/03/03 07:32:57;;;;;;;16.02;11.27;;;;;;;7.51;100.00;100460.38;5032821;28;20040;-74
2023/03/03 07:35:39;;;;;;;23.48;13.05;;;;;;;7.17;100.00;100463.19;5031354;28;20458;-74
2023/03/03 07:38:30;;;;;;;23.42;15.50;;;;;;;7.47;100.00;100455.34;5039696;28;20086;-76
2023/03/03 07:40:58;;;;;;;19.08;13.38;;;;;;;6.98;100.00;100400.09;5051726;28;20119;-76
2023/03/03 07:43:37;;;;;;;19.40;12.82;;;;;;;7.26;100.00;100451.31;5042786;28;20037;-75
2023/03/03 07:46:46;;;;;;;21.55;13.40;;;;;;;7.31;100.00;100438.66;5031984;28;20447;-75
2023/03/03 07:49:48;;;;;;;21.42;13.52;;;;;;;7.51;100.00;100449.41;4972074;28;20070;-74
2023/03/03 07:52:27;;;;;;;16.35;11.65;;;;;;;7.34;100.00;100441.13;4979225;28;20073;-74
2023/03/03 07:54:55;;;;;;;18.67;12.73;;;;;;;7.43;100.00;100424.19;5009332;28;20128;-74
2023/03/03 07:57:38;;;;;;;19.38;12.25;;;;;;;7.27;100.00;100440.34;5011590;28;20415;-75
2023/03/03 08:00:15;;;;;;;17.85;11.98;;;;;;;7.01;100.00;100432.13;5011851;28;20033;-75
2023/03/03 08:03:02;;;;;;;17.52;12.98;;;;;;;7.67;100.00;100423.16;5013210;28;20073;-75
2023/03/03 08:05:33;;;;;;;17.63;12.63;;;;;;;7.92;100.00;100429.66;5011992;28;20022;-79
2023/03/03 08:08:18;;;;;;;19.83;12.90;;;;;;;8.15;100.00;100411.69;5014941;28;20036;-77
2023/03/03 08:10:49;;;;;;;18.50;13.35;;;;;;;7.25;100.00;100330.78;5028457;28;20041;-76
2023/03/03 08:13:18;;;;;;;17.03;11.07;;;;;;;7.12;100.00;100366.31;5040762;28;20476;-78
2023/03/03 08:15:48;;;;;;;20.05;12.18;;;;;;;8.00;100.00;100432.97;5047363;28;20034;-77
2023/03/03 08:18:22;;;;;;;20.20;13.52;;;;;;;7.52;100.00;100434.25;5031923;28;20029;-77
2023/03/03 08:20:50;;;;;;;24.23;15.50;;;;;;;7.58;100.00;100365.91;5032920;28;20057;-80
2023/03/03 08:23:17;;;;;;;17.77;11.43;;;;;;;7.58;100.00;100370.97;4682438;28;10000335;-78
2023/03/03 08:25:43;;;;;;;18.27;11.93;;;;;;;7.45;100.00;100383.72;5051032;28;20067;-76
2023/03/03 08:28:10;;;;;;;15.27;10.68;;;;;;;7.33;100.00;100368.66;5051598;28;20048;-79
2023/03/03 08:30:35;;;;;;;15.48;11.45;;;;;;;7.76;100.00;100423.06;5035885;28;20069;-72
2023/03/03 08:33:01;;;;;;;18.23;9.70;;;;;;;7.76;100.00;100441.59;5029855;28;20495;-74
2023/03/03 08:35:26;;;;;;;31.40;19.95;;;;;;;7.84;100.00;100422.13;5030564;28;20033;-73
2023/03/03 08:37:52;;;;;;;56.63;31.90;;;;;;;7.85;100.00;100433.09;5029746;28;20487;-73
2023/03/03 08:40:17;;;;;;;13.13;9.57;;;;;;;7.54;100.00;100431.72;5031375;28;20032;-74
2023/03/03 08:42:43;;;;;;;15.43;10.75;;;;;;;7.25;100.00;100393.19;5029575;28;20033;-78
2023/03/03 08:45:09;;;;;;;18.63;12.18;;;;;;;7.65;100.00;100419.78;5030706;28;20021;-75
2023/03/03 08:47:34;;;;;;;19.77;13.32;;;;;;;7.41;100.00;100385.44;5028540;28;20036;-74
2023/03/03 08:49:59;;;;;;;31.00;18.27;;;;;;;7.90;100.00;100418.72;5029964;28;20116;-75
2023/03/03 08:52:25;;;;;;;20.95;12.38;;;;;;;7.58;100.00;100408.91;5030511;28;20086;-74
2023/03/03 08:54:51;;;;;;;21.20;12.40;;;;;;;7.45;100.00;100376.13;5029904;28;20025;-75
2023/03/03 08:57:16;;;;;;;29.15;16.75;;;;;;;7.75;100.00;100432.34;5029426;28;20048;-74
2023/03/03 08:59:42;;;;;;;27.05;18.60;;;;;;;8.03;100.00;100411.81;5029118;28;20030;-74
2023/03/03 09:02:07;;;;;;;35.65;17.77;;;;;;;8.04;100.00;100413.50;5031067;28;20045;-74
2023/03/03 09:04:33;;;;;;;23.15;15.15;;;;;;;7.80;100.00;100372.41;5030504;28;20056;-74
2023/03/03 09:06:58;;;;;;;20.35;13.90;;;;;;;7.78;100.00;100404.47;5030761;28;20029;-75
2023/03/03 09:09:23;;;;;;;30.55;17.45;;;;;;;7.47;100.00;100349.13;5030777;28;20037;-74
2023/03/03 09:11:49;;;;;;;20.27;13.85;;;;;;;7.72;100.00;100373.34;5029678;28;20381;-75
2023/03/03 09:14:17;;;;;;;25.52;16.27;;;;;;;7.74;100.00;100366.59;5030978;28;20114;-70
2023/03/03 09:16:52;;;;;;;23.98;16.33;;;;;;;7.77;100.00;100404.50;5030172;28;20022;-74
2023/03/03 09:19:29;;;;;;;26.27;14.88;;;;;;;8.19;100.00;100416.72;5048655;28;20029;-75
2023/03/03 09:22:00;;;;;;;23.23;14.65;;;;;;;8.00;100.00;100351.97;5050509;28;20079;-75
2023/03/03 09:24:28;;;;;;;21.85;15.15;;;;;;;7.99;100.00;100412.69;5050159;28;20151;-77
2023/03/03 09:26:57;;;;;;;19.02;12.02;;;;;;;7.93;100.00;100395.06;5051112;28;20029;-77
2023/03/03 09:29:30;;;;;;;19.63;13.82;;;;;;;7.57;100.00;100313.63;5029499;28;20040;-76
2023/03/03 09:35:37;;;;;;;18.48;12.43;;;;;;;8.13;100.00;100408.34;5025377;28;20025;-77
2023/03/03 09:38:24;;;;;;;14.38;9.82;;;;;;;7.80;100.00;100409.53;5010300;28;20038;-76
2023/03/03 09:41:06;;;;;;;18.40;11.40;;;;;;;7.78;100.00;100417.13;5011884;28;20044;-75
2023/03/03 09:43:48;;;;;;;;;;;;;;;8.01;100.00;100404.25;5028211;28;20033;-75
2023/03/03 09:46:35;;;;;;;14.25;10.40;;;;;;;8.01;100.00;100393.28;5030208;28;19965;-79
2023/03/03 09:49:20;;;;;;;15.40;11.25;;;;;;;7.99;100.00;100397.53;5031896;28;20025;-77
2023/03/03 09:51:58;;;;;;;15.65;11.15;;;;;;;8.05;100.00;100398.28;5030745;28;20040;-78
2023/03/03 09:55:02;;;;;;;15.85;10.63;;;;;;;8.18;100.00;100393.94;5031590;28;20045;-77
2023/03/03 09:57:55;;;;;;;15.68;10.68;;;;;;;8.05;100.00;100389.84;5018144;28;20071;-76
2023/03/03 10:00:34;;;;;;;13.88;11.15;;;;;;;8.03;100.00;100389.03;5031763;28;20495;-77
2023/03/03 10:03:21;;;;;;;16.92;13.27;;;;;;;7.91;100.00;100392.53;5031507;28;20112;-77
2023/03/03 10:06:01;;;;;;;18.70;13.07;;;;;;;7.96;100.00;100390.81;5034681;28;20091;-77
2023/03/03 10:08:51;;;;;;;17.10;12.32;;;;;;;8.13;100.00;100394.00;5034473;28;20037;-77
2023/03/03 10:11:41;;;;;;;17.70;11.63;;;;;;;8.16;100.00;100388.88;5035406;28;20565;-78
2023/03/03 10:14:28;;;;;;;14.25;10.40;;;;;;;7.88;100.00;100370.63;5034573;28;20028;-77
2023/03/03 10:17:16;;;;;;;21.38;16.15;;;;;;;8.25;100.00;100380.38;5033978;28;20049;-77
2023/03/03 10:20:16;;;;;;;18.58;14.60;;;;;;;8.25;100.00;100371.09;5035469;28;20040;-76
2023/03/03 10:23:13;;;;;;;19.05;13.20;;;;;;;8.11;100.00;100369.53;5018118;28;20050;-76
2023/03/03 10:25:52;;;;;;;17.70;13.98;;;;;;;8.04;100.00;100338.41;5033644;28;20025;-77
2023/03/03 10:28:45;;;;;;;20.67;14.70;;;;;;;8.27;100.00;100349.13;5034161;28;20415;-77
2023/03/03 10:31:28;;;;;;;13.15;9.73;;;;;;;7.96;100.00;100347.78;5035130;28;20124;-77
2023/03/03 10:34:16;;;;;;;13.88;9.50;;;;;;;8.19;100.00;100345.81;5034116;28;20025;-77
2023/03/03 10:36:50;;;;;;;12.10;8.90;;;;;;;7.75;100.00;100284.75;5034867;28;20056;-77
2023/03/03 10:39:36;;;;;;;13.23;10.05;;;;;;;7.98;100.00;100287.84;5033850;28;20038;-77
2023/03/03 10:42:25;;;;;;;18.70;13.10;;;;;;;8.06;100.00;100285.22;5033894;28;20029;-76
2023/03/03 10:45:12;;;;;;;17.77;12.40;;;;;;;8.15;100.00;100339.09;5034083;28;20030;-77
2023/03/03 10:48:06;;;;;;;17.25;12.82;;;;;;;8.34;100.00;100320.31;5033922;28;20103;-77
2023/03/03 10:51:03;;;;;;;19.90;14.25;;;;;;;8.42;100.00;100317.66;5034044;28;20040;-77
2023/03/03 10:53:41;;;;;;;14.38;11.68;;;;;;;8.16;100.00;100297.72;5033065;28;20099;-75
2023/03/03 10:56:35;;;;;;;22.38;16.02;;;;;;;8.48;100.00;100315.88;5033138;28;20037;-74
2023/03/03 10:59:03;;;;;;;16.65;11.80;;;;;;;8.24;100.00;100311.13;5033975;28;20039;-74
2023/03/03 11:01:46;;;;;;;19.13;13.18;;;;;;;8.25;100.00;100264.72;5032302;28;20091;-73
2023/03/03 11:04:24;;;;;;;13.32;10.55;;;;;;;8.64;100.00;100306.38;5028937;28;20042;-74
2023/03/03 11:07:24;;;;;;;48.42;23.92;;;;;;;8.73;100.00;100308.78;5034169;28;20059;-75
2023/03/03 11:10:10;;;;;;;14.23;10.73;;;;;;;8.33;100.00;100307.66;5034565;28;20025;-75
2023/03/03 11:13:13;;;;;;;15.98;11.13;;;;;;;8.55;100.00;100309.03;5032755;28;20038;-75
2023/03/03 11:16:16;;;;;;;13.98;11.48;;;;;;;8.79;100.00;100307.84;5013901;28;20089;-71
2023/03/03 11:19:00;;;;;;;;;;;;;;;8.35;100.00;100301.72;5014681;28;20037;-74
2023/03/03 11:21:25;;;;;;;22.73;14.65;;;;;;;8.42;100.00;100302.47;5012924;28;20016;-74
2023/03/03 11:24:23;;;;;;;21.80;14.52;;;;;;;8.09;100.00;100298.66;5014019;28;20065;-74
2023/03/03 11:27:00;;;;;;;27.25;16.55;;;;;;;8.21;100.00;100300.19;4994709;28;20053;-74
2023/03/03 11:29:41;;;;;;;17.10;12.63;;;;;;;7.86;100.00;100295.59;5012674;28;20113;-76
2023/03/03 11:32:39;;;;;;;14.18;10.73;;;;;;;7.39;100.00;100249.75;5013822;28;20029;-76